CPA543 RJTT-VHHH
Flight info
| Callsign | CPA543 |
|---|---|
| Flight time | N/A |
| Altitude | 38000 |
| Route | LAXAS Y56 TOHME Y54 TURFY Y24 KOSHI A1 AIPOM/N0472F400 A1 ELATO V522 ABBEY |
| Aircraft | A343/H-SDE2E3FGHIJ4J5M1RWXY/LB1D1 |
Departure
| Time | 2026-04-30 11:07 |
|---|---|
| Airport | Tokyo Haneda International Airport (RJTT) |
Arrival
| Time | N/A |
|---|---|
| Airport | Hong Kong International Airport (VHHH) |
| Time | Latitude | Longitude | Altitude | Speed | Heading |
|---|---|---|---|---|---|
| 2026-04-30 10:30 | 35.54845 | 139.76663 | 27 ft | 0 kts | 150° |
| 2026-04-30 10:46 | 35.54855 | 139.76656 | 27 ft | 4 kts | 150° |
| 2026-04-30 10:47 | 35.54875 | 139.76641 | 26 ft | 2 kts | 149° |
| 2026-04-30 10:47 | 35.54898 | 139.76631 | 27 ft | 4 kts | 186° |
| 2026-04-30 10:47 | 35.54915 | 139.76637 | 27 ft | 4 kts | 213° |
| 2026-04-30 10:47 | 35.54934 | 139.76658 | 27 ft | 4 kts | 239° |
| 2026-04-30 10:48 | 35.54946 | 139.76684 | 27 ft | 3 kts | 240° |
| 2026-04-30 10:48 | 35.54948 | 139.76687 | 27 ft | 0 kts | 240° |
| 2026-04-30 10:51 | 35.54939 | 139.76669 | 27 ft | 4 kts | 240° |
| 2026-04-30 10:52 | 35.54922 | 139.76631 | 27 ft | 6 kts | 240° |
| 2026-04-30 10:52 | 35.54893 | 139.76573 | 27 ft | 11 kts | 239° |
| 2026-04-30 10:52 | 35.54858 | 139.76488 | 27 ft | 10 kts | 251° |
| 2026-04-30 10:52 | 35.54867 | 139.76426 | 29 ft | 7 kts | 302° |
| 2026-04-30 10:53 | 35.54916 | 139.76415 | 29 ft | 11 kts | 17° |
| 2026-04-30 10:53 | 35.54993 | 139.76475 | 29 ft | 14 kts | 35° |
| 2026-04-30 10:53 | 35.55079 | 139.76561 | 28 ft | 16 kts | 53° |
| 2026-04-30 10:53 | 35.55137 | 139.76678 | 28 ft | 16 kts | 60° |
| 2026-04-30 10:54 | 35.55194 | 139.76799 | 27 ft | 16 kts | 59° |
| 2026-04-30 10:54 | 35.55259 | 139.76935 | 30 ft | 17 kts | 59° |
| 2026-04-30 10:54 | 35.55275 | 139.77020 | 26 ft | 10 kts | 112° |
| 2026-04-30 10:54 | 35.55176 | 139.77107 | 28 ft | 24 kts | 149° |
| 2026-04-30 10:55 | 35.55033 | 139.77208 | 33 ft | 22 kts | 150° |
| 2026-04-30 10:55 | 35.54902 | 139.77301 | 28 ft | 23 kts | 150° |
| 2026-04-30 10:55 | 35.54765 | 139.77399 | 27 ft | 22 kts | 150° |
| 2026-04-30 10:55 | 35.54633 | 139.77493 | 28 ft | 22 kts | 150° |
| 2026-04-30 10:56 | 35.54503 | 139.77584 | 28 ft | 21 kts | 152° |
| 2026-04-30 10:56 | 35.54383 | 139.77669 | 31 ft | 19 kts | 149° |
| 2026-04-30 10:56 | 35.54271 | 139.77749 | 29 ft | 19 kts | 150° |
| 2026-04-30 10:56 | 35.54155 | 139.77832 | 31 ft | 20 kts | 150° |
| 2026-04-30 10:57 | 35.54040 | 139.77913 | 29 ft | 15 kts | 149° |
| 2026-04-30 10:57 | 35.54024 | 139.77978 | 24 ft | 9 kts | 76° |
| 2026-04-30 10:57 | 35.54073 | 139.78093 | 27 ft | 20 kts | 60° |
| 2026-04-30 10:57 | 35.54139 | 139.78232 | 27 ft | 21 kts | 59° |
| 2026-04-30 10:58 | 35.54218 | 139.78394 | 26 ft | 15 kts | 59° |
| 2026-04-30 10:58 | 35.54254 | 139.78487 | 27 ft | 9 kts | 83° |
| 2026-04-30 10:58 | 35.54201 | 139.78563 | 26 ft | 19 kts | 146° |
| 2026-04-30 10:58 | 35.54069 | 139.78656 | 28 ft | 22 kts | 150° |
| 2026-04-30 10:59 | 35.53939 | 139.78748 | 27 ft | 21 kts | 149° |
| 2026-04-30 10:59 | 35.53799 | 139.78850 | 29 ft | 26 kts | 148° |
| 2026-04-30 10:59 | 35.53631 | 139.78971 | 24 ft | 30 kts | 150° |
| 2026-04-30 10:59 | 35.53466 | 139.79089 | 25 ft | 21 kts | 151° |
| 2026-04-30 11:00 | 35.53383 | 139.79172 | 24 ft | 15 kts | 116° |
| 2026-04-30 11:00 | 35.53399 | 139.79311 | 26 ft | 18 kts | 60° |
| 2026-04-30 11:00 | 35.53465 | 139.79449 | 30 ft | 19 kts | 59° |
| 2026-04-30 11:00 | 35.53527 | 139.79580 | 26 ft | 19 kts | 60° |
| 2026-04-30 11:01 | 35.53624 | 139.79783 | 31 ft | 29 kts | 59° |
| 2026-04-30 11:01 | 35.53701 | 139.79943 | 31 ft | 12 kts | 62° |
| 2026-04-30 11:01 | 35.53706 | 139.80005 | 29 ft | 7 kts | 114° |
| 2026-04-30 11:01 | 35.53651 | 139.80062 | 29 ft | 12 kts | 146° |
| 2026-04-30 11:02 | 35.53577 | 139.80117 | 30 ft | 16 kts | 149° |
| 2026-04-30 11:02 | 35.53473 | 139.80190 | 35 ft | 18 kts | 149° |
| 2026-04-30 11:02 | 35.53373 | 139.80262 | 39 ft | 16 kts | 149° |
| 2026-04-30 11:02 | 35.53269 | 139.80336 | 44 ft | 19 kts | 150° |
| 2026-04-30 11:03 | 35.53137 | 139.80429 | 48 ft | 22 kts | 149° |
| 2026-04-30 11:03 | 35.53005 | 139.80524 | 47 ft | 25 kts | 150° |
| 2026-04-30 11:03 | 35.52914 | 139.80582 | 48 ft | 7 kts | 167° |
| 2026-04-30 11:04 | 35.52760 | 139.80443 | 51 ft | 17 kts | 223° |
| 2026-04-30 11:04 | 35.52660 | 139.80331 | 50 ft | 22 kts | 222° |
| 2026-04-30 11:04 | 35.52585 | 139.80300 | 49 ft | 10 kts | 155° |
| 2026-04-30 11:04 | 35.52553 | 139.80334 | 50 ft | 0 kts | 133° |
| 2026-04-30 11:05 | 35.52552 | 139.80336 | 50 ft | 3 kts | 133° |
| 2026-04-30 11:05 | 35.52503 | 139.80412 | 51 ft | 11 kts | 112° |
| 2026-04-30 11:06 | 35.52515 | 139.80465 | 49 ft | 5 kts | 59° |
| 2026-04-30 11:06 | 35.52556 | 139.80516 | 48 ft | 13 kts | 43° |
| 2026-04-30 11:06 | 35.52750 | 139.80734 | 47 ft | 66 kts | 42° |
| 2026-04-30 11:06 | 35.53226 | 139.81265 | 48 ft | 116 kts | 42° |
| 2026-04-30 11:07 | 35.53915 | 139.82036 | 96 ft | 152 kts | 45° |
| 2026-04-30 11:07 | 35.54701 | 139.82946 | 499 ft | 158 kts | 45° |
| 2026-04-30 11:07 | 35.55502 | 139.83902 | 986 ft | 163 kts | 48° |
| 2026-04-30 11:07 | 35.56122 | 139.85083 | 1459 ft | 172 kts | 75° |
| 2026-04-30 11:08 | 35.56077 | 139.86617 | 1871 ft | 194 kts | 110° |
| 2026-04-30 11:08 | 35.55584 | 139.88256 | 2335 ft | 216 kts | 114° |
| 2026-04-30 11:08 | 35.54963 | 139.90032 | 2863 ft | 236 kts | 117° |
| 2026-04-30 11:08 | 35.54305 | 139.91931 | 3589 ft | 245 kts | 115° |
| 2026-04-30 11:09 | 35.53586 | 139.93812 | 4570 ft | 244 kts | 130° |
| 2026-04-30 11:09 | 35.52197 | 139.95001 | 5365 ft | 251 kts | 164° |
| 2026-04-30 11:09 | 35.50449 | 139.95024 | 6244 ft | 255 kts | 191° |
| 2026-04-30 11:09 | 35.48715 | 139.94544 | 7149 ft | 256 kts | 194° |
| 2026-04-30 11:10 | 35.46972 | 139.94021 | 7977 ft | 260 kts | 197° |
| 2026-04-30 11:10 | 35.45311 | 139.93121 | 8769 ft | 263 kts | 214° |
| 2026-04-30 11:10 | 35.43867 | 139.91732 | 9611 ft | 266 kts | 224° |
| 2026-04-30 11:10 | 35.42622 | 139.90076 | 10340 ft | 272 kts | 230° |
| 2026-04-30 11:11 | 35.41390 | 139.88213 | 10682 ft | 290 kts | 232° |
| 2026-04-30 11:11 | 35.40128 | 139.86184 | 11002 ft | 308 kts | 233° |
| 2026-04-30 11:11 | 35.38815 | 139.84014 | 11303 ft | 325 kts | 234° |
| 2026-04-30 11:11 | 35.37445 | 139.81723 | 11600 ft | 342 kts | 234° |
| 2026-04-30 11:12 | 35.36014 | 139.79319 | 11975 ft | 354 kts | 234° |
| 2026-04-30 11:12 | 35.34551 | 139.76855 | 12540 ft | 361 kts | 235° |
| 2026-04-30 11:12 | 35.33062 | 139.74349 | 13148 ft | 366 kts | 235° |
| 2026-04-30 11:12 | 35.31554 | 139.71808 | 13776 ft | 371 kts | 236° |
| 2026-04-30 11:13 | 35.30024 | 139.69231 | 14384 ft | 376 kts | 236° |
| 2026-04-30 11:13 | 35.28482 | 139.66635 | 15014 ft | 379 kts | 236° |
| 2026-04-30 11:13 | 35.26927 | 139.64021 | 15655 ft | 381 kts | 236° |
| 2026-04-30 11:13 | 35.25362 | 139.61391 | 16285 ft | 384 kts | 236° |
| 2026-04-30 11:14 | 35.23788 | 139.58747 | 16987 ft | 385 kts | 236° |
| 2026-04-30 11:14 | 35.22203 | 139.56088 | 17586 ft | 388 kts | 236° |
| 2026-04-30 11:14 | 35.20604 | 139.53405 | 18163 ft | 392 kts | 236° |
| 2026-04-30 11:14 | 35.18992 | 139.50704 | 18750 ft | 394 kts | 236° |
| 2026-04-30 11:15 | 35.17373 | 139.47995 | 19352 ft | 393 kts | 236° |
| 2026-04-30 11:15 | 35.15759 | 139.45294 | 19978 ft | 393 kts | 236° |
| 2026-04-30 11:15 | 35.14149 | 139.42603 | 20589 ft | 392 kts | 237° |
| 2026-04-30 11:15 | 35.12540 | 139.39915 | 21189 ft | 392 kts | 237° |
| 2026-04-30 11:16 | 35.10929 | 139.37226 | 21777 ft | 392 kts | 237° |
| 2026-04-30 11:16 | 35.09316 | 139.34534 | 22304 ft | 393 kts | 237° |
| 2026-04-30 11:16 | 35.07696 | 139.31834 | 22850 ft | 394 kts | 237° |
| 2026-04-30 11:16 | 35.06076 | 139.29136 | 23379 ft | 395 kts | 238° |
| 2026-04-30 11:17 | 35.04510 | 139.26375 | 23878 ft | 394 kts | 242° |
| 2026-04-30 11:17 | 35.03267 | 139.23409 | 24267 ft | 393 kts | 250° |
| 2026-04-30 11:17 | 35.02404 | 139.20291 | 24615 ft | 394 kts | 255° |
| 2026-04-30 11:17 | 35.01742 | 139.17036 | 24980 ft | 397 kts | 258° |
| 2026-04-30 11:18 | 35.01191 | 139.13729 | 25336 ft | 399 kts | 259° |
| 2026-04-30 11:18 | 35.00170 | 139.07046 | 26066 ft | 403 kts | 258° |
| 2026-04-30 11:18 | 34.99642 | 139.03677 | 26399 ft | 405 kts | 258° |
| 2026-04-30 11:19 | 34.99109 | 139.00291 | 26776 ft | 407 kts | 259° |
| 2026-04-30 11:19 | 34.98766 | 138.96856 | 27135 ft | 409 kts | 263° |
| 2026-04-30 11:19 | 34.98527 | 138.93385 | 27497 ft | 411 kts | 263° |
| 2026-04-30 11:19 | 34.98323 | 138.89901 | 27841 ft | 413 kts | 264° |
| 2026-04-30 11:20 | 34.98137 | 138.86398 | 28147 ft | 415 kts | 263° |
| 2026-04-30 11:20 | 34.97957 | 138.82868 | 28383 ft | 418 kts | 263° |
| 2026-04-30 11:20 | 34.97777 | 138.79321 | 28706 ft | 420 kts | 263° |
| 2026-04-30 11:20 | 34.97594 | 138.75749 | 29035 ft | 422 kts | 263° |
| 2026-04-30 11:21 | 34.97408 | 138.72179 | 29347 ft | 423 kts | 263° |
| 2026-04-30 11:21 | 34.97219 | 138.68591 | 29632 ft | 425 kts | 263° |
| 2026-04-30 11:21 | 34.97026 | 138.64987 | 29906 ft | 426 kts | 263° |
| 2026-04-30 11:21 | 34.96831 | 138.61379 | 30183 ft | 428 kts | 263° |
| 2026-04-30 11:22 | 34.96634 | 138.57764 | 30524 ft | 426 kts | 262° |
| 2026-04-30 11:22 | 34.96439 | 138.54173 | 30972 ft | 422 kts | 262° |
| 2026-04-30 11:22 | 34.96245 | 138.50621 | 31457 ft | 418 kts | 262° |
| 2026-04-30 11:22 | 34.96053 | 138.47112 | 31969 ft | 412 kts | 262° |
| 2026-04-30 11:23 | 34.95861 | 138.43643 | 32459 ft | 408 kts | 262° |
| 2026-04-30 11:23 | 34.95670 | 138.40211 | 32840 ft | 405 kts | 262° |
| 2026-04-30 11:23 | 34.95284 | 138.33393 | 33538 ft | 401 kts | 262° |
| 2026-04-30 11:24 | 34.95092 | 138.30017 | 33916 ft | 398 kts | 262° |
| 2026-04-30 11:24 | 34.94899 | 138.26649 | 34117 ft | 399 kts | 262° |
| 2026-04-30 11:24 | 34.94702 | 138.23255 | 34203 ft | 402 kts | 262° |
| 2026-04-30 11:25 | 34.94301 | 138.16399 | 34318 ft | 408 kts | 262° |
| 2026-04-30 11:25 | 34.94102 | 138.12957 | 34435 ft | 408 kts | 262° |
| 2026-04-30 11:25 | 34.93703 | 138.06079 | 34671 ft | 406 kts | 262° |
| 2026-04-30 11:26 | 34.93301 | 137.99271 | 34825 ft | 406 kts | 261° |
| 2026-04-30 11:26 | 34.92955 | 137.93514 | 34886 ft | 406 kts | 261° |
| 2026-04-30 11:27 | 34.92474 | 137.85522 | 34922 ft | 407 kts | 261° |
| 2026-04-30 11:27 | 34.92123 | 137.79808 | 34951 ft | 407 kts | 261° |
| 2026-04-30 11:28 | 34.91413 | 137.69514 | 35037 ft | 404 kts | 257° |
| 2026-04-30 11:29 | 34.89983 | 137.62959 | 35084 ft | 400 kts | 249° |
| 2026-04-30 11:29 | 34.87156 | 137.53384 | 35128 ft | 400 kts | 248° |
| 2026-04-30 11:30 | 34.84285 | 137.43889 | 35143 ft | 400 kts | 249° |
| 2026-04-30 11:31 | 34.82457 | 137.37495 | 35144 ft | 401 kts | 249° |
| 2026-04-30 11:31 | 34.80638 | 137.31072 | 35147 ft | 401 kts | 249° |
| 2026-04-30 11:32 | 34.78805 | 137.24653 | 35145 ft | 401 kts | 249° |
| 2026-04-30 11:32 | 34.76961 | 137.18244 | 35146 ft | 401 kts | 249° |
| 2026-04-30 11:33 | 34.74189 | 137.08649 | 35175 ft | 399 kts | 249° |
| 2026-04-30 11:33 | 34.72344 | 137.02276 | 35185 ft | 399 kts | 249° |
| 2026-04-30 11:34 | 34.70210 | 136.96061 | 35203 ft | 399 kts | 241° |
| 2026-04-30 11:34 | 34.67079 | 136.90488 | 35208 ft | 400 kts | 235° |
| 2026-04-30 11:35 | 34.63651 | 136.85146 | 35199 ft | 400 kts | 234° |
| 2026-04-30 11:35 | 34.60185 | 136.79858 | 35179 ft | 400 kts | 233° |
| 2026-04-30 11:36 | 34.56725 | 136.74557 | 35187 ft | 401 kts | 233° |
| 2026-04-30 11:36 | 34.53271 | 136.69243 | 35191 ft | 401 kts | 233° |
| 2026-04-30 11:37 | 34.49823 | 136.63938 | 35186 ft | 401 kts | 233° |
| 2026-04-30 11:37 | 34.46370 | 136.58633 | 35188 ft | 401 kts | 233° |
| 2026-04-30 11:38 | 34.42914 | 136.53328 | 35193 ft | 401 kts | 233° |
| 2026-04-30 11:38 | 34.39448 | 136.48023 | 35223 ft | 401 kts | 233° |
| 2026-04-30 11:39 | 34.35982 | 136.42731 | 35285 ft | 401 kts | 233° |
| 2026-04-30 11:39 | 34.32532 | 136.37464 | 35329 ft | 401 kts | 233° |
| 2026-04-30 11:40 | 34.29049 | 136.32163 | 35395 ft | 402 kts | 233° |
| 2026-04-30 11:40 | 34.25557 | 136.26864 | 35466 ft | 402 kts | 232° |
| 2026-04-30 11:41 | 34.22067 | 136.21581 | 35495 ft | 402 kts | 233° |
| 2026-04-30 11:41 | 34.18567 | 136.16301 | 35491 ft | 402 kts | 232° |
| 2026-04-30 11:42 | 34.15063 | 136.11020 | 35548 ft | 403 kts | 233° |
| 2026-04-30 11:42 | 34.11617 | 136.05753 | 35632 ft | 401 kts | 233° |
| 2026-04-30 11:43 | 34.08146 | 136.00470 | 35656 ft | 402 kts | 233° |
| 2026-04-30 11:43 | 34.04667 | 135.95193 | 35686 ft | 402 kts | 232° |
| 2026-04-30 11:44 | 34.01145 | 135.89968 | 35707 ft | 401 kts | 233° |
| 2026-04-30 11:44 | 33.97672 | 135.84705 | 35735 ft | 401 kts | 233° |
| 2026-04-30 11:45 | 33.95913 | 135.82056 | 35351 ft | 404 kts | 232° |
| 2026-04-30 11:45 | 33.94154 | 135.79411 | 35289 ft | 404 kts | 233° |
| 2026-04-30 11:45 | 33.90607 | 135.74152 | 35278 ft | 405 kts | 233° |
| 2026-04-30 11:46 | 33.87088 | 135.68851 | 35346 ft | 405 kts | 233° |
| 2026-04-30 11:46 | 33.83568 | 135.63558 | 35431 ft | 405 kts | 233° |
| 2026-04-30 11:47 | 33.81824 | 135.60960 | 35575 ft | 404 kts | 232° |
| 2026-04-30 11:47 | 33.80051 | 135.58341 | 35616 ft | 403 kts | 232° |
| 2026-04-30 11:47 | 33.76537 | 135.53073 | 35736 ft | 404 kts | 233° |
| 2026-04-30 11:48 | 33.73018 | 135.47809 | 35784 ft | 404 kts | 233° |
| 2026-04-30 11:48 | 33.69484 | 135.42546 | 35832 ft | 404 kts | 232° |
| 2026-04-30 11:49 | 33.65954 | 135.37304 | 35859 ft | 404 kts | 233° |
| 2026-04-30 11:49 | 33.62421 | 135.32067 | 35866 ft | 404 kts | 232° |
| 2026-04-30 11:50 | 33.58883 | 135.26830 | 35873 ft | 404 kts | 232° |
| 2026-04-30 11:50 | 33.55371 | 135.21637 | 35875 ft | 404 kts | 232° |
| 2026-04-30 11:51 | 33.51829 | 135.16409 | 35879 ft | 404 kts | 232° |
| 2026-04-30 11:51 | 33.48280 | 135.11178 | 35877 ft | 404 kts | 232° |
| 2026-04-30 11:52 | 33.44726 | 135.05947 | 35856 ft | 406 kts | 232° |
| 2026-04-30 11:52 | 33.41162 | 135.00710 | 35855 ft | 406 kts | 232° |
| 2026-04-30 11:53 | 33.37599 | 134.95478 | 35867 ft | 405 kts | 232° |
| 2026-04-30 11:53 | 33.34037 | 134.90245 | 35867 ft | 405 kts | 232° |
| 2026-04-30 11:54 | 33.30471 | 134.85012 | 35859 ft | 406 kts | 232° |
| 2026-04-30 11:54 | 33.26901 | 134.79784 | 35842 ft | 406 kts | 232° |
| 2026-04-30 11:55 | 33.23322 | 134.74551 | 35839 ft | 406 kts | 232° |
| 2026-04-30 11:55 | 33.19744 | 134.69328 | 35840 ft | 406 kts | 232° |
| 2026-04-30 11:56 | 33.16566 | 134.63742 | 35819 ft | 409 kts | 242° |
| 2026-04-30 11:56 | 33.14542 | 134.57412 | 35847 ft | 409 kts | 250° |
| 2026-04-30 11:57 | 33.12922 | 134.50906 | 35872 ft | 409 kts | 251° |
| 2026-04-30 11:57 | 33.11356 | 134.44376 | 35867 ft | 409 kts | 251° |
| 2026-04-30 11:58 | 33.09778 | 134.37883 | 35874 ft | 410 kts | 251° |
| 2026-04-30 11:58 | 33.08162 | 134.31321 | 35866 ft | 410 kts | 250° |
| 2026-04-30 11:59 | 33.06558 | 134.24856 | 35858 ft | 409 kts | 250° |
| 2026-04-30 11:59 | 33.04963 | 134.18357 | 35904 ft | 407 kts | 251° |
| 2026-04-30 12:00 | 33.03394 | 134.11855 | 35907 ft | 408 kts | 251° |
| 2026-04-30 12:00 | 33.01824 | 134.05363 | 35922 ft | 407 kts | 251° |
| 2026-04-30 12:01 | 33.00251 | 133.98897 | 35908 ft | 405 kts | 250° |
| 2026-04-30 12:01 | 32.98677 | 133.92449 | 35898 ft | 404 kts | 250° |
| 2026-04-30 12:02 | 32.97104 | 133.86022 | 35880 ft | 404 kts | 250° |
| 2026-04-30 12:02 | 32.95522 | 133.79576 | 35900 ft | 405 kts | 250° |
| 2026-04-30 12:03 | 32.93148 | 133.69926 | 35894 ft | 404 kts | 250° |
| 2026-04-30 12:04 | 32.91563 | 133.63503 | 35894 ft | 404 kts | 250° |
| 2026-04-30 12:04 | 32.89977 | 133.57092 | 35876 ft | 403 kts | 250° |
| 2026-04-30 12:05 | 32.88380 | 133.50671 | 35896 ft | 406 kts | 250° |
| 2026-04-30 12:05 | 32.86781 | 133.44235 | 35892 ft | 406 kts | 250° |
| 2026-04-30 12:06 | 32.85182 | 133.37808 | 35892 ft | 404 kts | 250° |
| 2026-04-30 12:06 | 32.83585 | 133.31410 | 35889 ft | 403 kts | 250° |
| 2026-04-30 12:07 | 32.81981 | 133.25010 | 35891 ft | 405 kts | 250° |
| 2026-04-30 12:07 | 32.80376 | 133.18618 | 35892 ft | 405 kts | 250° |
| 2026-04-30 12:08 | 32.78766 | 133.12216 | 35884 ft | 404 kts | 250° |
| 2026-04-30 12:08 | 32.77153 | 133.05820 | 35881 ft | 404 kts | 250° |
| 2026-04-30 12:09 | 32.75357 | 132.99528 | 35877 ft | 400 kts | 243° |
| 2026-04-30 12:09 | 32.72836 | 132.93665 | 35875 ft | 398 kts | 240° |
| 2026-04-30 12:10 | 32.70161 | 132.87903 | 35870 ft | 398 kts | 239° |
| 2026-04-30 12:10 | 32.67478 | 132.82202 | 35867 ft | 398 kts | 239° |
| 2026-04-30 12:11 | 32.64783 | 132.76459 | 35867 ft | 398 kts | 239° |
| 2026-04-30 12:11 | 32.62548 | 132.71687 | 35867 ft | 398 kts | 239° |
| 2026-04-30 12:12 | 32.59859 | 132.65945 | 35866 ft | 398 kts | 239° |
| 2026-04-30 12:12 | 32.56715 | 132.59241 | 35872 ft | 397 kts | 239° |
| 2026-04-30 12:13 | 32.54477 | 132.54478 | 35856 ft | 397 kts | 239° |
| 2026-04-30 12:13 | 32.51782 | 132.48752 | 35865 ft | 398 kts | 239° |
| 2026-04-30 12:14 | 32.49077 | 132.43013 | 35867 ft | 398 kts | 239° |
| 2026-04-30 12:14 | 32.46374 | 132.37287 | 35869 ft | 397 kts | 239° |
| 2026-04-30 12:15 | 32.43679 | 132.31587 | 35863 ft | 397 kts | 239° |
| 2026-04-30 12:15 | 32.40991 | 132.25911 | 35873 ft | 398 kts | 239° |
| 2026-04-30 12:16 | 32.38277 | 132.20189 | 35871 ft | 399 kts | 239° |
| 2026-04-30 12:16 | 32.35566 | 132.14481 | 35872 ft | 397 kts | 239° |
| 2026-04-30 12:17 | 32.31506 | 132.05950 | 35876 ft | 398 kts | 239° |
| 2026-04-30 12:17 | 32.28780 | 132.00234 | 35875 ft | 399 kts | 239° |
| 2026-04-30 12:18 | 32.26077 | 131.94572 | 35875 ft | 397 kts | 239° |
| 2026-04-30 12:18 | 32.23363 | 131.88898 | 35875 ft | 396 kts | 239° |
| 2026-04-30 12:19 | 32.20631 | 131.83197 | 35881 ft | 397 kts | 239° |
| 2026-04-30 12:19 | 32.17921 | 131.77549 | 35894 ft | 398 kts | 239° |
| 2026-04-30 12:20 | 32.15202 | 131.71888 | 35881 ft | 395 kts | 239° |
| 2026-04-30 12:20 | 32.12491 | 131.66256 | 35875 ft | 394 kts | 239° |
| 2026-04-30 12:21 | 32.09779 | 131.60629 | 35864 ft | 396 kts | 239° |
| 2026-04-30 12:21 | 32.07052 | 131.54981 | 35871 ft | 396 kts | 238° |
| 2026-04-30 12:22 | 32.04327 | 131.49342 | 35848 ft | 395 kts | 238° |
| 2026-04-30 12:22 | 32.01606 | 131.43724 | 35839 ft | 395 kts | 238° |
| 2026-04-30 12:23 | 31.98879 | 131.38101 | 35834 ft | 397 kts | 238° |
| 2026-04-30 12:23 | 31.96135 | 131.32450 | 35848 ft | 397 kts | 238° |
| 2026-04-30 12:24 | 31.93391 | 131.26808 | 35844 ft | 396 kts | 238° |
| 2026-04-30 12:24 | 31.90656 | 131.21190 | 35900 ft | 396 kts | 238° |
| 2026-04-30 12:25 | 31.87915 | 131.15572 | 35898 ft | 396 kts | 238° |
| 2026-04-30 12:25 | 31.85163 | 131.09939 | 35899 ft | 396 kts | 238° |
| 2026-04-30 12:26 | 31.82418 | 131.04328 | 35887 ft | 395 kts | 238° |
| 2026-04-30 12:26 | 31.79694 | 130.98770 | 35878 ft | 395 kts | 238° |
| 2026-04-30 12:27 | 31.76948 | 130.93175 | 35856 ft | 395 kts | 238° |
| 2026-04-30 12:27 | 31.74199 | 130.87582 | 35872 ft | 395 kts | 238° |
| 2026-04-30 12:28 | 31.71451 | 130.81998 | 35861 ft | 394 kts | 238° |
| 2026-04-30 12:28 | 31.68710 | 130.76436 | 35862 ft | 394 kts | 238° |
| 2026-04-30 12:29 | 31.65963 | 130.70873 | 35865 ft | 394 kts | 238° |
| 2026-04-30 12:29 | 31.63206 | 130.65297 | 35904 ft | 397 kts | 238° |
| 2026-04-30 12:30 | 31.60430 | 130.59689 | 35908 ft | 397 kts | 238° |
| 2026-04-30 12:30 | 31.57667 | 130.54116 | 35911 ft | 397 kts | 238° |
| 2026-04-30 12:31 | 31.54883 | 130.48509 | 35908 ft | 398 kts | 238° |
| 2026-04-30 12:31 | 31.52103 | 130.42921 | 35912 ft | 394 kts | 238° |
| 2026-04-30 12:32 | 31.49343 | 130.37373 | 35916 ft | 394 kts | 238° |
| 2026-04-30 12:32 | 31.46575 | 130.31826 | 35915 ft | 394 kts | 238° |
| 2026-04-30 12:33 | 31.43807 | 130.26285 | 35919 ft | 394 kts | 238° |
| 2026-04-30 12:33 | 31.41043 | 130.20759 | 35911 ft | 392 kts | 238° |
| 2026-04-30 12:34 | 31.38282 | 130.15248 | 35929 ft | 393 kts | 238° |
| 2026-04-30 12:34 | 31.35533 | 130.09768 | 35929 ft | 392 kts | 238° |
| 2026-04-30 12:35 | 31.32767 | 130.04261 | 35926 ft | 392 kts | 238° |
| 2026-04-30 12:35 | 31.30009 | 129.98780 | 35923 ft | 390 kts | 238° |
| 2026-04-30 12:36 | 31.26910 | 129.93579 | 35931 ft | 390 kts | 232° |
| 2026-04-30 12:36 | 31.23591 | 129.88546 | 35933 ft | 391 kts | 232° |
| 2026-04-30 12:37 | 31.20231 | 129.83540 | 35936 ft | 391 kts | 232° |
| 2026-04-30 12:37 | 31.16872 | 129.78540 | 35953 ft | 390 kts | 232° |
| 2026-04-30 12:38 | 31.13533 | 129.73563 | 35940 ft | 389 kts | 232° |
| 2026-04-30 12:38 | 31.10215 | 129.68615 | 35935 ft | 389 kts | 232° |
| 2026-04-30 12:39 | 31.06874 | 129.63641 | 35947 ft | 389 kts | 232° |
| 2026-04-30 12:39 | 31.03531 | 129.58669 | 35947 ft | 389 kts | 232° |
| 2026-04-30 12:40 | 31.00210 | 129.53737 | 35934 ft | 389 kts | 232° |
| 2026-04-30 12:40 | 30.96836 | 129.48732 | 35949 ft | 391 kts | 232° |
| 2026-04-30 12:41 | 30.93477 | 129.43757 | 35950 ft | 391 kts | 232° |
| 2026-04-30 12:41 | 30.90138 | 129.38817 | 35953 ft | 391 kts | 232° |
| 2026-04-30 12:42 | 30.86777 | 129.33850 | 35958 ft | 391 kts | 232° |
| 2026-04-30 12:42 | 30.83409 | 129.28881 | 35953 ft | 391 kts | 232° |
| 2026-04-30 12:43 | 30.80044 | 129.23921 | 35955 ft | 390 kts | 232° |
| 2026-04-30 12:43 | 30.76677 | 129.18962 | 35959 ft | 390 kts | 232° |
| 2026-04-30 12:44 | 30.73372 | 129.13956 | 35912 ft | 390 kts | 233° |
| 2026-04-30 12:44 | 30.70084 | 129.08905 | 35963 ft | 391 kts | 233° |
| 2026-04-30 12:45 | 30.66795 | 129.03880 | 35960 ft | 390 kts | 233° |
| 2026-04-30 12:45 | 30.63496 | 128.98867 | 35964 ft | 390 kts | 233° |
| 2026-04-30 12:46 | 30.60195 | 128.93863 | 35965 ft | 390 kts | 233° |
| 2026-04-30 12:46 | 30.56887 | 128.88854 | 36006 ft | 392 kts | 233° |
| 2026-04-30 12:47 | 30.53572 | 128.83840 | 35968 ft | 391 kts | 233° |
| 2026-04-30 12:47 | 30.50289 | 128.78881 | 35968 ft | 390 kts | 233° |
| 2026-04-30 12:48 | 30.46984 | 128.73895 | 35973 ft | 390 kts | 233° |
| 2026-04-30 12:48 | 30.43677 | 128.68912 | 35960 ft | 391 kts | 233° |
| 2026-04-30 12:49 | 30.40350 | 128.63904 | 35990 ft | 392 kts | 233° |
| 2026-04-30 12:49 | 30.37024 | 128.58906 | 35976 ft | 391 kts | 233° |
| 2026-04-30 12:50 | 30.33708 | 128.53927 | 35977 ft | 390 kts | 233° |
| 2026-04-30 12:50 | 30.30389 | 128.48950 | 35977 ft | 390 kts | 233° |
| 2026-04-30 12:51 | 30.27059 | 128.43964 | 35983 ft | 393 kts | 233° |
| 2026-04-30 12:51 | 30.23712 | 128.38957 | 35982 ft | 393 kts | 233° |
| 2026-04-30 12:52 | 30.20364 | 128.33956 | 35987 ft | 393 kts | 233° |
| 2026-04-30 12:52 | 30.17010 | 128.28952 | 35988 ft | 393 kts | 233° |
| 2026-04-30 12:53 | 30.13658 | 128.23958 | 35990 ft | 393 kts | 233° |
| 2026-04-30 12:53 | 30.10304 | 128.18966 | 36033 ft | 393 kts | 233° |
| 2026-04-30 12:54 | 30.06959 | 128.13992 | 35996 ft | 391 kts | 233° |
| 2026-04-30 12:54 | 30.03601 | 128.09066 | 35997 ft | 390 kts | 233° |
| 2026-04-30 12:55 | 30.00296 | 128.04143 | 35956 ft | 390 kts | 233° |
| 2026-04-30 12:55 | 29.96952 | 127.99166 | 36004 ft | 394 kts | 233° |
| 2026-04-30 12:56 | 29.93588 | 127.94181 | 36025 ft | 393 kts | 233° |
| 2026-04-30 12:56 | 29.90232 | 127.89223 | 36007 ft | 391 kts | 233° |
| 2026-04-30 12:57 | 29.86883 | 127.84282 | 36007 ft | 391 kts | 233° |
| 2026-04-30 12:57 | 29.83438 | 127.79426 | 36015 ft | 393 kts | 231° |
| 2026-04-30 12:58 | 29.80449 | 127.75470 | 36018 ft | 394 kts | 230° |
| 2026-04-30 12:58 | 29.76842 | 127.70712 | 36043 ft | 393 kts | 231° |
| 2026-04-30 12:59 | 29.73272 | 127.65957 | 36017 ft | 392 kts | 231° |
| 2026-04-30 12:59 | 29.69722 | 127.61206 | 35967 ft | 391 kts | 231° |
| 2026-04-30 13:00 | 29.66159 | 127.56437 | 36026 ft | 394 kts | 231° |
| 2026-04-30 13:00 | 29.62578 | 127.51650 | 36034 ft | 395 kts | 231° |
| 2026-04-30 13:01 | 29.58989 | 127.46862 | 36056 ft | 395 kts | 231° |
| 2026-04-30 13:01 | 29.55496 | 127.42019 | 36031 ft | 393 kts | 233° |
| 2026-04-30 13:02 | 29.52143 | 127.37074 | 36030 ft | 393 kts | 233° |
| 2026-04-30 13:02 | 29.48769 | 127.32111 | 36039 ft | 395 kts | 233° |
| 2026-04-30 13:03 | 29.45364 | 127.27168 | 36039 ft | 395 kts | 233° |
| 2026-04-30 13:03 | 29.41950 | 127.22241 | 36062 ft | 394 kts | 233° |
| 2026-04-30 13:04 | 29.38542 | 127.17334 | 36045 ft | 392 kts | 233° |
| 2026-04-30 13:04 | 29.35131 | 127.12426 | 36045 ft | 396 kts | 233° |
| 2026-04-30 13:05 | 29.31695 | 127.07485 | 36052 ft | 396 kts | 233° |
| 2026-04-30 13:06 | 29.26538 | 127.00080 | 36052 ft | 396 kts | 233° |
| 2026-04-30 13:06 | 29.23108 | 126.95161 | 36054 ft | 394 kts | 233° |
| 2026-04-30 13:07 | 29.19678 | 126.90250 | 36056 ft | 395 kts | 233° |
| 2026-04-30 13:07 | 29.16238 | 126.85332 | 36058 ft | 396 kts | 233° |
| 2026-04-30 13:08 | 29.12817 | 126.80446 | 36062 ft | 396 kts | 233° |
| 2026-04-30 13:08 | 29.09369 | 126.75528 | 36063 ft | 396 kts | 233° |
| 2026-04-30 13:09 | 29.05934 | 126.70632 | 36020 ft | 394 kts | 233° |
| 2026-04-30 13:09 | 29.02479 | 126.65714 | 36064 ft | 398 kts | 233° |
| 2026-04-30 13:10 | 28.99008 | 126.60778 | 36071 ft | 399 kts | 233° |
| 2026-04-30 13:10 | 28.95516 | 126.55849 | 36075 ft | 399 kts | 233° |
| 2026-04-30 13:11 | 28.91929 | 126.51003 | 36077 ft | 399 kts | 232° |
| 2026-04-30 13:11 | 28.88328 | 126.46195 | 36073 ft | 399 kts | 232° |
| 2026-04-30 13:12 | 28.84745 | 126.41389 | 36076 ft | 400 kts | 232° |
| 2026-04-30 13:12 | 28.81144 | 126.36547 | 36074 ft | 400 kts | 232° |
| 2026-04-30 13:13 | 28.75743 | 126.29286 | 36077 ft | 400 kts | 232° |
| 2026-04-30 13:14 | 28.70329 | 126.22021 | 36084 ft | 402 kts | 232° |
| 2026-04-30 13:14 | 28.64888 | 126.14734 | 36079 ft | 403 kts | 232° |
| 2026-04-30 13:15 | 28.59531 | 126.07366 | 36081 ft | 402 kts | 234° |
| 2026-04-30 13:16 | 28.56051 | 126.02392 | 36084 ft | 402 kts | 234° |
| 2026-04-30 13:16 | 28.52557 | 125.97427 | 36082 ft | 402 kts | 234° |
| 2026-04-30 13:17 | 28.47287 | 125.90003 | 36086 ft | 402 kts | 234° |
| 2026-04-30 13:18 | 28.42008 | 125.82593 | 36085 ft | 402 kts | 233° |
| 2026-04-30 13:18 | 28.36720 | 125.75179 | 36118 ft | 404 kts | 234° |
| 2026-04-30 13:19 | 28.33180 | 125.70219 | 36092 ft | 403 kts | 234° |
| 2026-04-30 13:19 | 28.29645 | 125.65276 | 36090 ft | 403 kts | 234° |
| 2026-04-30 13:20 | 28.26107 | 125.60336 | 36092 ft | 403 kts | 234° |
| 2026-04-30 13:20 | 28.22592 | 125.55432 | 36060 ft | 403 kts | 233° |
| 2026-04-30 13:21 | 28.19036 | 125.50476 | 36101 ft | 406 kts | 233° |
| 2026-04-30 13:22 | 28.13699 | 125.43050 | 36098 ft | 404 kts | 234° |
| 2026-04-30 13:22 | 28.08368 | 125.35645 | 36105 ft | 404 kts | 234° |
| 2026-04-30 13:23 | 28.03023 | 125.28232 | 36101 ft | 407 kts | 233° |
| 2026-04-30 13:24 | 27.95877 | 125.18341 | 36109 ft | 407 kts | 234° |
| 2026-04-30 13:25 | 27.88706 | 125.08443 | 36100 ft | 407 kts | 234° |
| 2026-04-30 13:26 | 27.79702 | 124.96042 | 36110 ft | 409 kts | 234° |
| 2026-04-30 13:28 | 27.70675 | 124.83648 | 36078 ft | 408 kts | 233° |
| 2026-04-30 13:28 | 27.65231 | 124.76188 | 36113 ft | 412 kts | 233° |
| 2026-04-30 13:29 | 27.57944 | 124.66223 | 36116 ft | 411 kts | 234° |
| 2026-04-30 13:31 | 27.48849 | 124.53794 | 36117 ft | 413 kts | 233° |
| 2026-04-30 13:32 | 27.39685 | 124.41314 | 36116 ft | 414 kts | 233° |
| 2026-04-30 13:33 | 27.32355 | 124.31357 | 36119 ft | 415 kts | 233° |
| 2026-04-30 13:34 | 27.26819 | 124.23851 | 36118 ft | 416 kts | 233° |
| 2026-04-30 13:35 | 27.19422 | 124.13845 | 36118 ft | 416 kts | 233° |
| 2026-04-30 13:36 | 27.11991 | 124.03812 | 36116 ft | 420 kts | 233° |
| 2026-04-30 13:36 | 27.06374 | 123.96268 | 36121 ft | 420 kts | 233° |
| 2026-04-30 13:37 | 27.00718 | 123.88768 | 36121 ft | 419 kts | 233° |
| 2026-04-30 13:38 | 26.95058 | 123.81268 | 36120 ft | 422 kts | 233° |
| 2026-04-30 13:39 | 26.87456 | 123.71206 | 36120 ft | 423 kts | 233° |
| 2026-04-30 13:40 | 26.81755 | 123.63674 | 36121 ft | 423 kts | 232° |
| 2026-04-30 13:40 | 26.77973 | 123.58685 | 36121 ft | 423 kts | 232° |
| 2026-04-30 13:41 | 26.74164 | 123.53666 | 36123 ft | 423 kts | 232° |
| 2026-04-30 13:41 | 26.70352 | 123.48648 | 36123 ft | 423 kts | 232° |
| 2026-04-30 13:42 | 26.67181 | 123.44479 | 36185 ft | 424 kts | 232° |
| 2026-04-30 13:42 | 26.65265 | 123.41961 | 36325 ft | 424 kts | 232° |
| 2026-04-30 13:42 | 26.61441 | 123.36937 | 36544 ft | 425 kts | 232° |
| 2026-04-30 13:43 | 26.57592 | 123.31895 | 36538 ft | 426 kts | 232° |
| 2026-04-30 13:43 | 26.53743 | 123.26856 | 36538 ft | 426 kts | 232° |
| 2026-04-30 13:44 | 26.49889 | 123.21815 | 36542 ft | 427 kts | 232° |
| 2026-04-30 13:44 | 26.46035 | 123.16779 | 36541 ft | 427 kts | 232° |
| 2026-04-30 13:45 | 26.40235 | 123.09212 | 36516 ft | 431 kts | 232° |
| 2026-04-30 13:46 | 26.36364 | 123.04167 | 36519 ft | 431 kts | 232° |
| 2026-04-30 13:46 | 26.32463 | 122.99094 | 36517 ft | 431 kts | 232° |
| 2026-04-30 13:47 | 26.28556 | 122.94024 | 36513 ft | 431 kts | 232° |
| 2026-04-30 13:47 | 26.24654 | 122.88955 | 36517 ft | 431 kts | 232° |
| 2026-04-30 13:48 | 26.20736 | 122.83872 | 36500 ft | 434 kts | 232° |
| 2026-04-30 13:48 | 26.16794 | 122.78768 | 36503 ft | 434 kts | 232° |
| 2026-04-30 13:49 | 26.12851 | 122.73668 | 36498 ft | 434 kts | 232° |
| 2026-04-30 13:49 | 26.08928 | 122.68600 | 36501 ft | 434 kts | 232° |
| 2026-04-30 13:50 | 26.04984 | 122.63510 | 36499 ft | 434 kts | 232° |
| 2026-04-30 13:50 | 25.99036 | 122.55843 | 36491 ft | 438 kts | 232° |
| 2026-04-30 13:51 | 25.95057 | 122.50725 | 36494 ft | 438 kts | 232° |
| 2026-04-30 13:51 | 25.91077 | 122.45609 | 36494 ft | 438 kts | 232° |
| 2026-04-30 13:52 | 25.87097 | 122.40494 | 36490 ft | 438 kts | 232° |
| 2026-04-30 13:52 | 25.83113 | 122.35380 | 36459 ft | 440 kts | 232° |
| 2026-04-30 13:53 | 25.79091 | 122.30222 | 36475 ft | 442 kts | 232° |
| 2026-04-30 13:53 | 25.75061 | 122.25063 | 36477 ft | 442 kts | 232° |
| 2026-04-30 13:54 | 25.71046 | 122.19929 | 36478 ft | 443 kts | 232° |
| 2026-04-30 13:54 | 25.67008 | 122.14771 | 36478 ft | 442 kts | 232° |
| 2026-04-30 13:55 | 25.62964 | 122.09610 | 36460 ft | 444 kts | 231° |
| 2026-04-30 13:55 | 25.58897 | 122.04428 | 36480 ft | 446 kts | 231° |
| 2026-04-30 13:56 | 25.54863 | 121.99264 | 36481 ft | 446 kts | 231° |
| 2026-04-30 13:56 | 25.50789 | 121.94079 | 36475 ft | 446 kts | 231° |
| 2026-04-30 13:57 | 25.46708 | 121.88903 | 36477 ft | 446 kts | 231° |
| 2026-04-30 13:57 | 25.42627 | 121.83731 | 36455 ft | 446 kts | 231° |
| 2026-04-30 13:58 | 25.36485 | 121.75955 | 36461 ft | 449 kts | 231° |
| 2026-04-30 13:59 | 25.32372 | 121.70754 | 36458 ft | 450 kts | 231° |
| 2026-04-30 13:59 | 25.28251 | 121.65549 | 36455 ft | 450 kts | 231° |
| 2026-04-30 14:00 | 25.24130 | 121.60351 | 36451 ft | 450 kts | 231° |
| 2026-04-30 14:00 | 25.17955 | 121.52569 | 36512 ft | 448 kts | 231° |
| 2026-04-30 14:01 | 25.13850 | 121.47333 | 36545 ft | 452 kts | 232° |
| 2026-04-30 14:01 | 25.09787 | 121.42027 | 36571 ft | 452 kts | 232° |
| 2026-04-30 14:02 | 25.05709 | 121.36707 | 36616 ft | 452 kts | 232° |
| 2026-04-30 14:02 | 25.01633 | 121.31421 | 36606 ft | 452 kts | 231° |
| 2026-04-30 14:03 | 24.97556 | 121.26152 | 36617 ft | 452 kts | 231° |
| 2026-04-30 14:03 | 24.93463 | 121.20871 | 36644 ft | 454 kts | 232° |
| 2026-04-30 14:04 | 24.89364 | 121.15588 | 36649 ft | 453 kts | 232° |
| 2026-04-30 14:04 | 24.85241 | 121.10276 | 36665 ft | 454 kts | 232° |
| 2026-04-30 14:05 | 24.81159 | 121.05026 | 36657 ft | 454 kts | 232° |
| 2026-04-30 14:05 | 24.77069 | 120.99765 | 36585 ft | 451 kts | 232° |
| 2026-04-30 14:06 | 24.75032 | 120.97146 | 36417 ft | 451 kts | 232° |
| 2026-04-30 14:06 | 24.70948 | 120.91898 | 36088 ft | 452 kts | 232° |
| 2026-04-30 14:07 | 24.64798 | 120.84009 | 36079 ft | 453 kts | 232° |
| 2026-04-30 14:08 | 24.58635 | 120.76118 | 36076 ft | 454 kts | 232° |
| 2026-04-30 14:08 | 24.52345 | 120.68333 | 36069 ft | 455 kts | 229° |
| 2026-04-30 14:09 | 24.47905 | 120.63369 | 36071 ft | 455 kts | 228° |
| 2026-04-30 14:10 | 24.41259 | 120.55922 | 36071 ft | 455 kts | 229° |
| 2026-04-30 14:10 | 24.36860 | 120.50925 | 36071 ft | 455 kts | 229° |
| 2026-04-30 14:11 | 24.32469 | 120.45926 | 36069 ft | 455 kts | 229° |
| 2026-04-30 14:11 | 24.28074 | 120.40929 | 36067 ft | 455 kts | 229° |
| 2026-04-30 14:12 | 24.23707 | 120.35973 | 36063 ft | 456 kts | 229° |
| 2026-04-30 14:12 | 24.19293 | 120.30975 | 36058 ft | 456 kts | 229° |
| 2026-04-30 14:13 | 24.14882 | 120.25976 | 36054 ft | 456 kts | 229° |
| 2026-04-30 14:13 | 24.10472 | 120.20975 | 36053 ft | 456 kts | 229° |
| 2026-04-30 14:14 | 24.06058 | 120.15981 | 36053 ft | 456 kts | 229° |
| 2026-04-30 14:14 | 24.01644 | 120.10996 | 36061 ft | 456 kts | 229° |
| 2026-04-30 14:15 | 23.97215 | 120.06008 | 36054 ft | 457 kts | 229° |
| 2026-04-30 14:15 | 23.92780 | 120.01009 | 36060 ft | 457 kts | 229° |
| 2026-04-30 14:16 | 23.88354 | 119.96024 | 36061 ft | 457 kts | 229° |
| 2026-04-30 14:16 | 23.83918 | 119.91037 | 36061 ft | 457 kts | 229° |
| 2026-04-30 14:17 | 23.79488 | 119.86062 | 36053 ft | 457 kts | 229° |
| 2026-04-30 14:17 | 23.75080 | 119.81118 | 36055 ft | 458 kts | 229° |
| 2026-04-30 14:18 | 23.70603 | 119.76102 | 36049 ft | 459 kts | 229° |
| 2026-04-30 14:18 | 23.63949 | 119.68658 | 36048 ft | 459 kts | 229° |
| 2026-04-30 14:19 | 23.57821 | 119.60712 | 36048 ft | 455 kts | 238° |
| 2026-04-30 14:20 | 23.54391 | 119.54927 | 36047 ft | 454 kts | 240° |
| 2026-04-30 14:20 | 23.49346 | 119.46157 | 36047 ft | 455 kts | 240° |
| 2026-04-30 14:21 | 23.45972 | 119.40320 | 36046 ft | 455 kts | 240° |
| 2026-04-30 14:22 | 23.40891 | 119.31578 | 36050 ft | 455 kts | 240° |
| 2026-04-30 14:22 | 23.35801 | 119.22842 | 36057 ft | 456 kts | 240° |
| 2026-04-30 14:23 | 23.29025 | 119.11231 | 36055 ft | 456 kts | 240° |
| 2026-04-30 14:24 | 23.23917 | 119.02498 | 36057 ft | 456 kts | 240° |
| 2026-04-30 14:25 | 23.17101 | 118.90864 | 36059 ft | 456 kts | 240° |
| 2026-04-30 14:26 | 23.12553 | 118.83118 | 36056 ft | 457 kts | 240° |
| 2026-04-30 14:27 | 23.07425 | 118.74397 | 36061 ft | 457 kts | 240° |
| 2026-04-30 14:27 | 23.04003 | 118.68586 | 36059 ft | 457 kts | 240° |
| 2026-04-30 14:28 | 22.98857 | 118.59859 | 36062 ft | 457 kts | 240° |
| 2026-04-30 14:28 | 22.95427 | 118.54050 | 36061 ft | 457 kts | 240° |
| 2026-04-30 14:29 | 22.88551 | 118.42480 | 36045 ft | 457 kts | 240° |
| 2026-04-30 14:31 | 22.79917 | 118.28005 | 36056 ft | 457 kts | 239° |
| 2026-04-30 14:31 | 22.74730 | 118.19326 | 36057 ft | 457 kts | 239° |
| 2026-04-30 14:32 | 22.69537 | 118.10652 | 36056 ft | 457 kts | 239° |
| 2026-04-30 14:33 | 22.66093 | 118.04908 | 36058 ft | 457 kts | 239° |
| 2026-04-30 14:33 | 22.60904 | 117.96265 | 36058 ft | 456 kts | 239° |
| 2026-04-30 14:34 | 22.57450 | 117.90495 | 36054 ft | 456 kts | 240° |
| 2026-04-30 14:34 | 22.54025 | 117.84716 | 36056 ft | 456 kts | 240° |
| 2026-04-30 14:35 | 22.48882 | 117.76051 | 36056 ft | 456 kts | 240° |
| 2026-04-30 14:36 | 22.45445 | 117.70280 | 36051 ft | 456 kts | 240° |
| 2026-04-30 14:36 | 22.42022 | 117.64544 | 36052 ft | 456 kts | 240° |
| 2026-04-30 14:37 | 22.38577 | 117.58776 | 36057 ft | 456 kts | 240° |
| 2026-04-30 14:37 | 22.35312 | 117.52917 | 36060 ft | 454 kts | 247° |
| 2026-04-30 14:38 | 22.33459 | 117.46456 | 36063 ft | 450 kts | 262° |
| 2026-04-30 14:38 | 22.33063 | 117.39722 | 36057 ft | 449 kts | 268° |
| 2026-04-30 14:39 | 22.32967 | 117.32977 | 36064 ft | 449 kts | 269° |
| 2026-04-30 14:39 | 22.32893 | 117.26230 | 36053 ft | 449 kts | 269° |
| 2026-04-30 14:40 | 22.32725 | 117.16113 | 36063 ft | 449 kts | 268° |
| 2026-04-30 14:40 | 22.32594 | 117.09414 | 36063 ft | 449 kts | 268° |
| 2026-04-30 14:41 | 22.32458 | 117.02676 | 36059 ft | 449 kts | 268° |
| 2026-04-30 14:41 | 22.32322 | 116.95932 | 36057 ft | 449 kts | 268° |
| 2026-04-30 14:42 | 22.32183 | 116.89195 | 36050 ft | 449 kts | 268° |
| 2026-04-30 14:42 | 22.32043 | 116.82461 | 36048 ft | 448 kts | 268° |
| 2026-04-30 14:43 | 22.31900 | 116.75731 | 36053 ft | 448 kts | 268° |
| 2026-04-30 14:43 | 22.31753 | 116.69001 | 36052 ft | 448 kts | 268° |
| 2026-04-30 14:44 | 22.31603 | 116.62270 | 36066 ft | 448 kts | 268° |
| 2026-04-30 14:44 | 22.31450 | 116.55545 | 36057 ft | 448 kts | 268° |
| 2026-04-30 14:45 | 22.31295 | 116.48813 | 36059 ft | 448 kts | 268° |
| 2026-04-30 14:45 | 22.31136 | 116.42082 | 36051 ft | 449 kts | 268° |
| 2026-04-30 14:46 | 22.30974 | 116.35341 | 36050 ft | 449 kts | 268° |
| 2026-04-30 14:46 | 22.30809 | 116.28608 | 36061 ft | 449 kts | 268° |
| 2026-04-30 14:47 | 22.30643 | 116.21878 | 36051 ft | 449 kts | 268° |
| 2026-04-30 14:47 | 22.30473 | 116.15138 | 36059 ft | 449 kts | 267° |
| 2026-04-30 14:48 | 22.30301 | 116.08397 | 36047 ft | 449 kts | 267° |
| 2026-04-30 14:48 | 22.30126 | 116.01652 | 36055 ft | 449 kts | 267° |
| 2026-04-30 14:49 | 22.29948 | 115.94911 | 36062 ft | 449 kts | 267° |
| 2026-04-30 14:49 | 22.29768 | 115.88212 | 36055 ft | 450 kts | 267° |
| 2026-04-30 14:50 | 22.29494 | 115.78065 | 36061 ft | 450 kts | 267° |
| 2026-04-30 14:51 | 22.29227 | 115.67929 | 36049 ft | 450 kts | 267° |
| 2026-04-30 14:52 | 22.28954 | 115.57782 | 36053 ft | 451 kts | 267° |
| 2026-04-30 14:52 | 22.28669 | 115.47617 | 36046 ft | 452 kts | 267° |
| 2026-04-30 14:53 | 22.28379 | 115.37450 | 36030 ft | 450 kts | 267° |
| 2026-04-30 14:54 | 22.28211 | 115.30780 | 34503 ft | 438 kts | 270° |
| 2026-04-30 14:54 | 22.29922 | 115.24408 | 32299 ft | 456 kts | 294° |
| 2026-04-30 14:55 | 22.33070 | 115.18336 | 30175 ft | 469 kts | 296° |
| 2026-04-30 14:55 | 22.34698 | 115.15231 | 29009 ft | 480 kts | 296° |
| 2026-04-30 14:55 | 22.37591 | 115.08768 | 27334 ft | 473 kts | 286° |
| 2026-04-30 14:56 | 22.38507 | 115.01882 | 25931 ft | 459 kts | 267° |
| 2026-04-30 14:56 | 22.36671 | 114.95449 | 24582 ft | 450 kts | 237° |
| 2026-04-30 14:57 | 22.34584 | 114.92947 | 23942 ft | 449 kts | 221° |
| 2026-04-30 14:57 | 22.28981 | 114.90127 | 22736 ft | 443 kts | 201° |
| 2026-04-30 14:58 | 22.24321 | 114.86373 | 22139 ft | 408 kts | 237° |
| 2026-04-30 14:58 | 22.23128 | 114.83665 | 21879 ft | 395 kts | 255° |
| 2026-04-30 14:58 | 22.23236 | 114.77934 | 21353 ft | 375 kts | 272° |
| 2026-04-30 14:59 | 22.21675 | 114.72804 | 20592 ft | 366 kts | 231° |
| 2026-04-30 15:00 | 22.16178 | 114.67369 | 19774 ft | 347 kts | 225° |
| 2026-04-30 15:00 | 22.12731 | 114.63932 | 19455 ft | 329 kts | 226° |
| 2026-04-30 15:01 | 22.09472 | 114.60620 | 18751 ft | 314 kts | 226° |
| 2026-04-30 15:01 | 22.08403 | 114.59528 | 18255 ft | 313 kts | 226° |
| 2026-04-30 15:01 | 22.04717 | 114.55752 | 17274 ft | 312 kts | 226° |
| 2026-04-30 15:02 | 22.03157 | 114.54140 | 16947 ft | 309 kts | 228° |
| 2026-04-30 15:02 | 22.01915 | 114.52273 | 16599 ft | 304 kts | 245° |
| 2026-04-30 15:03 | 21.99500 | 114.46052 | 15648 ft | 299 kts | 249° |
| 2026-04-30 15:03 | 21.97933 | 114.41923 | 14973 ft | 294 kts | 249° |
| 2026-04-30 15:04 | 21.96395 | 114.37896 | 13463 ft | 289 kts | 249° |
| 2026-04-30 15:04 | 21.94127 | 114.31977 | 10998 ft | 281 kts | 249° |
| 2026-04-30 15:05 | 21.91923 | 114.26235 | 8543 ft | 273 kts | 248° |
| 2026-04-30 15:06 | 21.90475 | 114.22468 | 6852 ft | 271 kts | 248° |
| 2026-04-30 15:06 | 21.89870 | 114.18566 | 5979 ft | 266 kts | 281° |
| 2026-04-30 15:07 | 21.91414 | 114.14913 | 5819 ft | 267 kts | 298° |
| 2026-04-30 15:07 | 21.93244 | 114.11434 | 5535 ft | 271 kts | 298° |
| 2026-04-30 15:08 | 21.95069 | 114.07928 | 5266 ft | 269 kts | 298° |
| 2026-04-30 15:08 | 21.97784 | 114.02677 | 4841 ft | 266 kts | 300° |
| 2026-04-30 15:09 | 21.99601 | 113.99158 | 4566 ft | 267 kts | 300° |
| 2026-04-30 15:09 | 22.01408 | 113.95656 | 4301 ft | 266 kts | 300° |
| 2026-04-30 15:10 | 22.03206 | 113.92168 | 4076 ft | 261 kts | 301° |
| 2026-04-30 15:11 | 22.06236 | 113.86278 | 3583 ft | 231 kts | 301° |
| 2026-04-30 15:11 | 22.07740 | 113.83355 | 3354 ft | 216 kts | 301° |
| 2026-04-30 15:12 | 22.09814 | 113.79320 | 2994 ft | 196 kts | 301° |
| 2026-04-30 15:13 | 22.11690 | 113.77466 | 2727 ft | 186 kts | 352° |
| 2026-04-30 15:14 | 22.16767 | 113.76105 | 2540 ft | 189 kts | 347° |
| 2026-04-30 15:14 | 22.20565 | 113.74952 | 2465 ft | 189 kts | 347° |
| 2026-04-30 15:16 | 22.26857 | 113.73650 | 2300 ft | 175 kts | 38° |
| 2026-04-30 15:17 | 22.27596 | 113.78246 | 2233 ft | 158 kts | 80° |
| 2026-04-30 15:18 | 22.29201 | 113.83904 | 1166 ft | 149 kts | 71° |
| 2026-04-30 15:19 | 22.30110 | 113.86743 | 664 ft | 129 kts | 72° |